Millersville, Maryland
Current Conditions -  °F | °C
As of 5:51 PM on Wednesday 22 Oct 2014 (Local Time) from KFME Reporting Station
Overcast Overcast  
Wind Chill: 54°   Ceiling: 3300
Heat Index: 54°   Visibility: 10mi
Dew Point: 46°   Wind: 7mph
Humidity: 77%   Direction: 330°NNW
Pressure: 29.93"   Gusts: 17mph
Location:  39.06°N, 76.65°W
Report Text: KFME 222151Z AUTO 33006G15KT 10SM BKN033 OVC040 12/08 A2993 RMK AO1
Loading
Personal Weather Stations






























Interactive Weather Map
Tropical Storm Tracking
New forecast layout! Learn more

10-Day Weather Forecast

Advertisements
Track Severe Weather on mobile